Weather History for Rolla, ND

Change the Weather History Date:

Sunday, October 7, 2012

  Actual Average (KRUG) Record (KRUG)
Temperature  
Mean Temperature 40 °F -  
Max Temperature 50 °F 59 °F 79 °F (1960)
Min Temperature 30 °F 34 °F 12 °F (1976)
Degree Days  
Heating Degree Days 25    
Moisture  
Dew Point 26 °F    
Average Humidity 59    
Maximum Humidity 80    
Minimum Humidity 37    
Precipitation  
Precipitation 0.00 in - - ()
Sea Level Pressure  
Sea Level Pressure 29.84 in    
Wind  
Wind Speed 11 mph (West)    
Max Wind Speed 17 mph    
Max Gust Speed 24 mph    
Visibility 10 miles    
Events      
Averages and records for this station are not official NWS values.
T = Trace of Precipitation, MM = Missing Value Source: NWS Daily Summary

Daily Weather History Graph

Daily Weather History Graph

Search for Another Location

Airport:

Trip Planner

Search our weather history database for the weather conditions in past years. The results will help you decide how hot, cold, wet, or windy it might be!

Date:

Astronomy

Oct. 07, 2012 Rise Set
Actual Time 7:47 AM CDT 7:03 PM CDT
Civil Twilight 7:16 AM CDT 7:35 PM CDT
Nautical Twilight 6:39 AM CDT 8:11 PM CDT
Astronomical Twilight 6:02 AM CDT 8:48 PM CDT
Moon 11:57 PM CDT (10/7) 2:47 PM CDT (10/7)
Length of Visible Light 12h 19m
Length of Day
11h 16m
Waning Gibbous, 56% of the Moon is Illuminated
Oct 7
Waning Gibbous
Oct 8
Last Quarter
Oct 15
New
Oct 21
First Quarter
Oct 29
Full

Hourly Weather History & Observations

Time (CDT) Temp. Windchill Dew Point Humidity Pressure Visibility Wind Dir Wind Speed Gust Speed Precip Events Conditions
12:15 AM 32.0 °F 23.0 °F 21.2 °F 64% 30.03 in 10.0 mi SW 11.5 mph - N/A   Overcast
12:35 AM 32.0 °F 22.5 °F 21.2 °F 64% 30.02 in 10.0 mi SW 12.7 mph - N/A   Overcast
12:55 AM 33.8 °F 24.8 °F 21.2 °F 60% 30.01 in 10.0 mi SW 12.7 mph - N/A   Overcast
1:15 AM 33.8 °F 25.8 °F 23.0 °F 65% 30.00 in 10.0 mi SW 10.4 mph - N/A   Overcast
1:35 AM 33.8 °F 25.3 °F 23.0 °F 65% 29.99 in 10.0 mi SW 11.5 mph - N/A   Overcast
1:55 AM 33.8 °F 25.3 °F 23.0 °F 65% 29.99 in 10.0 mi SW 11.5 mph - N/A   Overcast
2:15 AM 33.8 °F 24.8 °F 23.0 °F 65% 29.98 in 10.0 mi SW 12.7 mph - N/A   Overcast
2:35 AM 33.8 °F 25.3 °F 23.0 °F 65% 29.98 in 10.0 mi SW 11.5 mph - N/A   Overcast
2:55 AM 33.8 °F 24.8 °F 23.0 °F 65% 29.97 in 10.0 mi SW 12.7 mph - N/A   Overcast
3:15 AM 33.8 °F 24.8 °F 23.0 °F 65% 29.96 in 10.0 mi SW 12.7 mph - N/A   Overcast
3:55 AM 33.8 °F 25.3 °F 23.0 °F 65% 29.94 in 10.0 mi SW 11.5 mph - N/A   Overcast
4:15 AM 33.8 °F 24.8 °F 24.8 °F 70% 29.93 in 10.0 mi WSW 12.7 mph - N/A   Overcast
4:35 AM 33.8 °F 25.3 °F 24.8 °F 70% 29.93 in 10.0 mi SW 11.5 mph - N/A   Overcast
4:55 AM 33.8 °F 24.8 °F 24.8 °F 70% 29.92 in 10.0 mi SW 12.7 mph 19.6 mph N/A   Overcast
5:15 AM 33.8 °F 24.8 °F 24.8 °F 70% 29.91 in 10.0 mi SW 12.7 mph - N/A   Overcast
5:35 AM 33.8 °F 25.3 °F 24.8 °F 70% 29.90 in 10.0 mi SW 11.5 mph 16.1 mph N/A   Overcast
5:55 AM 32.0 °F 22.5 °F 24.8 °F 75% 29.90 in 10.0 mi SW 12.7 mph - N/A   Overcast
6:15 AM 32.0 °F 22.1 °F 24.8 °F 75% 29.89 in 10.0 mi SW 13.8 mph - N/A   Overcast
6:35 AM 32.0 °F 22.1 °F 24.8 °F 75% 29.88 in 10.0 mi SW 13.8 mph - N/A   Overcast
6:55 AM 32.0 °F 22.1 °F 24.8 °F 75% 29.88 in 10.0 mi SW 13.8 mph - N/A   Overcast
7:15 AM 32.0 °F 22.1 °F 24.8 °F 75% 29.87 in 10.0 mi WSW 13.8 mph - N/A   Overcast
7:35 AM 30.2 °F 19.8 °F 24.8 °F 80% 29.87 in 10.0 mi WSW 13.8 mph - N/A   Scattered Clouds
7:55 AM 30.2 °F 19.8 °F 24.8 °F 80% 29.87 in 10.0 mi WSW 13.8 mph - N/A   Clear
8:15 AM 32.0 °F 22.5 °F 24.8 °F 75% 29.86 in 10.0 mi WSW 12.7 mph - N/A   Mostly Cloudy
8:35 AM 32.0 °F 23.0 °F 24.8 °F 75% 29.86 in 10.0 mi WSW 11.5 mph - N/A   Mostly Cloudy
8:55 AM 33.8 °F 24.8 °F 26.6 °F 75% 29.86 in 10.0 mi WSW 12.7 mph - N/A   Overcast
9:15 AM 35.6 °F 27.5 °F 26.6 °F 70% 29.86 in 10.0 mi WSW 11.5 mph - N/A   Overcast
9:35 AM 37.4 °F 30.3 °F 26.6 °F 65% 29.86 in 10.0 mi WSW 10.4 mph - N/A   Overcast
9:55 AM 37.4 °F 30.8 °F 26.6 °F 65% 29.86 in 10.0 mi West 9.2 mph - N/A   Overcast
10:15 AM 39.2 °F 33.6 °F 26.6 °F 61% 29.86 in 10.0 mi West 8.1 mph - N/A   Overcast
10:35 AM 41.0 °F 37.1 °F 26.6 °F 57% 29.85 in 10.0 mi WSW 5.8 mph - N/A   Overcast
10:55 AM 42.8 °F 38.0 °F 26.6 °F 53% 29.85 in 10.0 mi WNW 8.1 mph - N/A   Scattered Clouds
11:15 AM 46.4 °F 40.4 °F 26.6 °F 46% 29.85 in 10.0 mi NW 13.8 mph - N/A   Scattered Clouds
11:35 AM 46.4 °F 41.5 °F 26.6 °F 46% 29.85 in 10.0 mi NW 10.4 mph - N/A   Scattered Clouds
11:55 AM 48.2 °F - 26.6 °F 43% 29.84 in 10.0 mi NNW 12.7 mph - N/A   Clear
12:15 PM 48.2 °F - 26.6 °F 43% 29.84 in 10.0 mi NNW 16.1 mph - N/A   Clear
12:35 PM 48.2 °F - 26.6 °F 43% 29.84 in 10.0 mi NNW 15.0 mph 24.2 mph N/A   Clear
12:55 PM 48.2 °F - 28.4 °F 46% 29.84 in 10.0 mi NNW 17.3 mph - N/A   Clear
1:15 PM 48.2 °F - 28.4 °F 46% 29.83 in 10.0 mi NNW 16.1 mph 23.0 mph N/A   Clear
1:35 PM 48.2 °F - 30.2 °F 50% 29.83 in 10.0 mi NW 15.0 mph 21.9 mph N/A   Clear
1:55 PM 48.2 °F - 30.2 °F 50% 29.83 in 10.0 mi NNW 15.0 mph 18.4 mph N/A   Partly Cloudy
2:15 PM 48.2 °F - 30.2 °F 50% 29.82 in 10.0 mi NNW 15.0 mph 23.0 mph N/A   Scattered Clouds
2:35 PM 48.2 °F - 28.4 °F 46% 29.81 in 10.0 mi NW 15.0 mph - N/A   Scattered Clouds
2:55 PM 48.2 °F - 28.4 °F 46% 29.81 in 10.0 mi NNW 13.8 mph 20.7 mph N/A   Partly Cloudy
3:15 PM 48.2 °F - 26.6 °F 43% 29.80 in 10.0 mi NW 16.1 mph 19.6 mph N/A   Mostly Cloudy
3:35 PM 48.2 °F - 26.6 °F 43% 29.80 in 10.0 mi NNW 15.0 mph - N/A   Overcast
3:55 PM 50.0 °F - 26.6 °F 40% 29.80 in 10.0 mi NNW 16.1 mph 19.6 mph N/A   Overcast
4:15 PM 50.0 °F - 26.6 °F 40% 29.80 in 10.0 mi NNW 12.7 mph - N/A   Overcast
4:35 PM 48.2 °F - 24.8 °F 40% 29.79 in 10.0 mi NW 10.4 mph - N/A   Mostly Cloudy
4:55 PM 50.0 °F - 24.8 °F 37% 29.79 in 10.0 mi WNW 15.0 mph - N/A   Scattered Clouds
5:15 PM 48.2 °F - 24.8 °F 40% 29.79 in 10.0 mi NW 13.8 mph - N/A   Partly Cloudy
5:35 PM 48.2 °F - 24.8 °F 40% 29.79 in 10.0 mi WNW 9.2 mph - N/A   Partly Cloudy
5:55 PM 46.4 °F 41.5 °F 24.8 °F 43% 29.79 in 10.0 mi NW 10.4 mph - N/A   Scattered Clouds
6:15 PM 46.4 °F 43.5 °F 26.6 °F 46% 29.78 in 10.0 mi WNW 5.8 mph - N/A   Mostly Cloudy
6:35 PM 46.4 °F 45.2 °F 26.6 °F 46% 29.78 in 10.0 mi WNW 3.5 mph - N/A   Scattered Clouds
6:55 PM 44.6 °F - 26.6 °F 49% 29.78 in 10.0 mi Calm Calm - N/A   Clear
7:15 PM 44.6 °F - 26.6 °F 49% 29.77 in 10.0 mi Calm Calm - N/A   Clear
7:35 PM 44.6 °F - 26.6 °F 49% 29.76 in 10.0 mi Calm Calm - N/A   Partly Cloudy
7:55 PM 42.8 °F - 28.4 °F 57% 29.76 in 10.0 mi North - - N/A   Mostly Cloudy
8:15 PM 41.0 °F - 28.4 °F 61% 29.76 in 10.0 mi Calm Calm - N/A   Overcast
8:35 PM 41.0 °F 39.0 °F 28.4 °F 61% 29.75 in 10.0 mi South 3.5 mph - N/A   Overcast
8:55 PM 39.2 °F 37.0 °F 28.4 °F 65% 29.75 in 10.0 mi SSW 3.5 mph - N/A   Overcast
9:15 PM 39.2 °F 37.0 °F 28.4 °F 65% 29.75 in 10.0 mi SSW 3.5 mph - N/A   Overcast
9:35 PM 39.2 °F - 32.0 °F 75% 29.74 in 10.0 mi Calm Calm - N/A   Overcast
9:55 PM 41.0 °F - 28.4 °F 61% 29.73 in 10.0 mi Calm Calm - N/A   Overcast
10:15 PM 41.0 °F 38.0 °F 28.4 °F 61% 29.73 in 10.0 mi SSW 4.6 mph - N/A   Overcast
10:35 PM 41.0 °F 37.1 °F 28.4 °F 61% 29.72 in 10.0 mi SSW 5.8 mph - N/A   Overcast
10:55 PM 41.0 °F 38.0 °F 28.4 °F 61% 29.71 in 10.0 mi SSW 4.6 mph - N/A   Overcast
11:15 PM 41.0 °F 35.8 °F 28.4 °F 61% 29.71 in 10.0 mi SW 8.1 mph - N/A   Overcast
11:35 PM 41.0 °F 36.4 °F 28.4 °F 61% 29.70 in 10.0 mi SSW 6.9 mph - N/A   Overcast
11:55 PM 41.0 °F 37.1 °F 28.4 °F 61% 29.69 in 10.0 mi SSW 5.8 mph - N/A   Overcast